createdAt,value
2023-03-28T00:01:10.747Z,83.50
2023-03-28T00:03:42.495Z,83.10
2023-03-28T00:06:16.831Z,83.30
2023-03-28T00:08:45.967Z,83.10
2023-03-28T00:11:20.457Z,83.20
2023-03-28T00:13:49.345Z,82.90
2023-03-28T00:16:16.811Z,82.60
2023-03-28T00:18:44.252Z,82.60
2023-03-28T00:21:24.699Z,82.50
2023-03-28T00:23:54.240Z,80.90
2023-03-28T00:26:27.187Z,82.00
2023-03-28T00:28:55.278Z,82.20
2023-03-28T00:31:23.935Z,82.30
2023-03-28T00:33:50.937Z,82.60
2023-03-28T00:36:23.123Z,82.80
2023-03-28T00:38:52.248Z,83.00
2023-03-28T00:41:22.139Z,83.20
2023-03-28T00:43:55.890Z,83.30
2023-03-28T00:46:33.843Z,83.40
2023-03-28T00:49:21.301Z,83.80
2023-03-28T00:51:57.162Z,83.20
2023-03-28T00:54:29.043Z,83.60
2023-03-28T00:57:02.255Z,83.80
2023-03-28T00:59:36.366Z,83.80
2023-03-28T01:02:04.215Z,83.00
2023-03-28T01:04:49.608Z,83.70
2023-03-28T01:07:18.834Z,82.60
2023-03-28T01:09:47.792Z,83.50
2023-03-28T01:12:17.661Z,83.50
2023-03-28T01:14:46.581Z,83.40
2023-03-28T01:17:13.741Z,83.10
2023-03-28T01:19:50.469Z,83.30
2023-03-28T01:23:12.748Z,82.30
2023-03-28T01:26:24.332Z,79.10
2023-03-28T01:29:06.756Z,79.80
2023-03-28T01:31:44.903Z,82.20
2023-03-28T01:34:36.158Z,82.30
2023-03-28T01:37:14.893Z,82.30
2023-03-28T01:40:06.345Z,82.40
2023-03-28T01:43:01.554Z,80.10
2023-03-28T01:45:33.405Z,80.60
2023-03-28T01:48:12.581Z,82.20
2023-03-28T01:50:49.628Z,82.30
2023-03-28T01:53:24.277Z,81.60
2023-03-28T01:56:07.899Z,81.20
2023-03-28T01:58:54.789Z,81.90
2023-03-28T02:01:36.798Z,81.10
2023-03-28T02:04:20.384Z,82.20
2023-03-28T02:06:52.637Z,82.40
2023-03-28T02:09:24.970Z,82.50
2023-03-28T02:12:01.707Z,82.50
2023-03-28T02:14:37.513Z,82.30
2023-03-28T02:17:15.546Z,82.50
2023-03-28T02:20:07.572Z,82.40
2023-03-28T02:22:50.988Z,81.00
2023-03-28T02:25:19.749Z,81.50
2023-03-28T02:27:52.776Z,82.90
2023-03-28T02:30:21.433Z,82.90
2023-03-28T02:32:50.632Z,83.10
2023-03-28T02:35:27.744Z,83.30
2023-03-28T02:38:11.208Z,83.20
2023-03-28T02:40:57.797Z,83.10
2023-03-28T02:43:36.855Z,83.40
2023-03-28T02:46:27.137Z,82.00
2023-03-28T02:49:43.782Z,83.20
2023-03-28T02:52:20.195Z,82.70
2023-03-28T02:54:58.902Z,82.80
2023-03-28T02:57:48.854Z,80.70
2023-03-28T03:00:19.877Z,81.50
2023-03-28T03:02:51.612Z,82.10
2023-03-28T03:05:21.455Z,82.30
2023-03-28T03:07:50.014Z,82.40
2023-03-28T03:10:17.581Z,82.30
2023-03-28T03:12:45.395Z,82.50
2023-03-28T03:15:17.025Z,82.30
2023-03-28T03:17:44.480Z,82.30
2023-03-28T03:20:11.955Z,82.50
2023-03-28T03:22:39.769Z,82.60
2023-03-28T03:25:08.479Z,82.70
2023-03-28T03:27:37.761Z,82.90
2023-03-28T03:30:06.391Z,82.90
2023-03-28T03:32:33.540Z,83.10
2023-03-28T03:35:00.502Z,83.20
2023-03-28T03:37:27.458Z,83.10
2023-03-28T03:39:54.294Z,83.10
2023-03-28T03:42:21.175Z,83.10
2023-03-28T03:44:48.076Z,83.20
2023-03-28T03:47:17.762Z,83.30
2023-03-28T03:49:44.778Z,83.10
2023-03-28T03:52:12.090Z,83.00
2023-03-28T03:54:39.092Z,83.00
2023-03-28T03:57:06.269Z,83.00
2023-03-28T03:59:33.264Z,83.20
2023-03-28T04:02:00.440Z,83.20
2023-03-28T04:04:28.053Z,83.30
2023-03-28T04:06:58.198Z,83.40
2023-03-28T04:09:29.656Z,84.00
2023-03-28T04:11:56.705Z,83.40
2023-03-28T04:14:23.827Z,83.40
2023-03-28T04:16:50.938Z,83.30
2023-03-28T04:19:18.377Z,83.20
2023-03-28T04:21:48.695Z,83.00
2023-03-28T04:24:17.343Z,82.70
2023-03-28T04:26:45.785Z,82.40
2023-03-28T04:29:13.474Z,82.40
2023-03-28T04:31:40.485Z,82.30
2023-03-28T04:34:07.827Z,82.30
2023-03-28T04:36:34.814Z,82.30
2023-03-28T04:39:02.927Z,82.50
2023-03-28T04:41:33.126Z,82.50
2023-03-28T04:44:01.244Z,82.60
2023-03-28T04:46:29.596Z,82.90
2023-03-28T04:48:57.133Z,82.50
2023-03-28T04:51:25.193Z,82.50
2023-03-28T04:53:52.287Z,82.40
2023-03-28T04:56:19.416Z,82.30
2023-03-28T04:58:46.288Z,82.30
2023-03-28T05:01:14.622Z,82.20
2023-03-28T05:03:41.491Z,82.20
2023-03-28T05:06:08.642Z,82.10
2023-03-28T05:08:35.541Z,82.10
2023-03-28T05:11:02.612Z,82.20
2023-03-28T05:13:29.666Z,82.30
2023-03-28T05:15:56.539Z,82.20
2023-03-28T05:18:23.499Z,82.10
2023-03-28T05:20:50.345Z,82.30
2023-03-28T05:23:17.518Z,82.20
2023-03-28T05:25:50.696Z,82.10
2023-03-28T05:28:17.995Z,82.30
2023-03-28T05:30:44.856Z,82.40
2023-03-28T05:33:11.883Z,82.60
2023-03-28T05:35:39.182Z,82.60
2023-03-28T05:38:06.355Z,82.50
2023-03-28T05:40:33.276Z,82.50
2023-03-28T05:43:00.133Z,82.60
2023-03-28T05:45:27.015Z,82.60
2023-03-28T05:47:56.083Z,82.50
2023-03-28T05:50:23.600Z,82.40
2023-03-28T05:52:50.425Z,82.20
2023-03-28T05:55:17.379Z,82.30
2023-03-28T05:57:44.488Z,82.30
2023-03-28T06:00:12.526Z,82.50
2023-03-28T06:02:40.729Z,82.80
2023-03-28T06:05:09.747Z,82.90
2023-03-28T06:07:42.684Z,83.00
2023-03-28T06:10:13.175Z,83.10
2023-03-28T06:12:41.112Z,83.10
2023-03-28T06:15:10.110Z,83.20
2023-03-28T06:17:37.237Z,83.10
2023-03-28T06:20:06.679Z,83.10
2023-03-28T06:22:34.184Z,83.30
2023-03-28T06:25:01.136Z,83.60
2023-03-28T06:27:28.114Z,83.70
2023-03-28T06:29:55.177Z,83.90
2023-03-28T06:32:22.248Z,84.00
2023-03-28T06:34:49.133Z,84.20
2023-03-28T06:37:15.980Z,84.40
2023-03-28T06:39:42.902Z,84.50
2023-03-28T06:42:09.836Z,84.50
2023-03-28T06:44:36.685Z,84.40
2023-03-28T06:47:03.624Z,84.10
2023-03-28T06:49:30.608Z,84.00
2023-03-28T06:51:57.457Z,83.90
2023-03-28T06:54:25.204Z,83.70
2023-03-28T06:56:52.226Z,83.80
2023-03-28T06:59:19.085Z,83.70
2023-03-28T07:01:45.916Z,83.90
2023-03-28T07:04:12.773Z,84.20
2023-03-28T07:06:39.593Z,84.10
2023-03-28T07:09:06.887Z,84.10
2023-03-28T07:11:33.900Z,84.40
2023-03-28T07:14:00.851Z,84.80
2023-03-28T07:16:27.842Z,85.00
2023-03-28T07:18:54.714Z,85.30
2023-03-28T07:21:21.580Z,85.00
2023-03-28T07:23:48.507Z,84.60
2023-03-28T07:26:17.836Z,84.40
2023-03-28T07:28:44.986Z,83.80
2023-03-28T07:31:12.338Z,84.20
2023-03-28T07:33:39.873Z,84.20
2023-03-28T07:36:14.602Z,84.30
2023-03-28T07:38:41.990Z,83.10
2023-03-28T07:41:09.348Z,82.80
2023-03-28T07:43:37.852Z,82.90
2023-03-28T07:46:12.158Z,83.30
2023-03-28T07:48:40.772Z,83.10
2023-03-28T07:51:09.774Z,83.10
2023-03-28T07:53:37.957Z,82.40
2023-03-28T07:56:10.804Z,83.30
2023-03-28T07:58:41.781Z,85.10
2023-03-28T08:01:13.809Z,85.00
2023-03-28T08:03:41.660Z,84.20
2023-03-28T08:06:24.218Z,84.90
2023-03-28T08:08:51.966Z,83.10
2023-03-28T08:11:18.879Z,81.10
2023-03-28T08:13:45.706Z,79.30
2023-03-28T08:18:39.359Z,78.60
2023-03-28T08:21:08.047Z,79.00
2023-03-28T08:23:34.904Z,79.70
2023-03-28T08:26:07.310Z,79.30
2023-03-28T08:28:36.121Z,78.90
2023-03-28T08:31:14.306Z,78.90
2023-03-28T08:33:44.128Z,80.60
2023-03-28T08:36:15.002Z,85.90
2023-03-28T08:38:42.566Z,85.60
2023-03-28T08:41:51.099Z,84.00
2023-03-28T08:44:41.984Z,83.30
2023-03-28T08:47:20.071Z,78.80
2023-03-28T08:49:55.961Z,72.60
2023-03-28T08:52:23.790Z,70.70
2023-03-28T08:55:13.465Z,73.60
2023-03-28T08:57:42.471Z,74.50
2023-03-28T09:00:22.301Z,78.10
2023-03-28T09:02:51.778Z,74.50
2023-03-28T09:05:47.234Z,76.00
2023-03-28T09:08:50.602Z,71.80
2023-03-28T09:11:35.505Z,74.50
2023-03-28T09:14:20.290Z,71.00
2023-03-28T09:17:13.425Z,70.50
2023-03-28T09:20:31.465Z,68.20
2023-03-28T09:23:22.758Z,64.00
2023-03-28T09:26:05.946Z,63.50
2023-03-28T09:29:08.993Z,69.00
2023-03-28T09:31:50.865Z,64.80
2023-03-28T09:34:47.188Z,72.80
2023-03-28T09:37:42.553Z,66.70
2023-03-28T09:40:26.337Z,67.50
2023-03-28T09:43:18.721Z,75.70
2023-03-28T09:45:54.257Z,74.70
2023-03-28T09:48:27.361Z,83.60
2023-03-28T09:50:54.394Z,79.90
2023-03-28T09:53:42.457Z,78.50
2023-03-28T09:56:27.509Z,68.70
2023-03-28T09:58:57.757Z,67.70
2023-03-28T10:01:37.225Z,70.70
2023-03-28T10:04:15.459Z,68.90
2023-03-28T10:06:44.564Z,69.60
2023-03-28T10:09:20.497Z,72.70
2023-03-28T10:11:57.481Z,70.60
2023-03-28T10:14:40.057Z,71.20
2023-03-28T10:17:29.688Z,70.20
2023-03-28T10:20:21.258Z,73.40
2023-03-28T10:22:54.736Z,67.70
2023-03-28T10:25:36.808Z,74.30
2023-03-28T10:28:07.576Z,72.60
2023-03-28T10:30:37.764Z,76.50
2023-03-28T10:33:17.297Z,71.80
2023-03-28T10:36:01.750Z,77.70
2023-03-28T10:38:49.500Z,86.30
2023-03-28T10:41:28.543Z,81.40
2023-03-28T10:43:57.380Z,75.30
2023-03-28T10:46:37.278Z,75.60
2023-03-28T10:49:15.462Z,68.90
2023-03-28T10:51:43.913Z,67.60
2023-03-28T10:54:33.710Z,71.00
2023-03-28T10:57:03.595Z,72.50
2023-03-28T10:59:51.686Z,74.70
2023-03-28T11:02:36.119Z,69.20
2023-03-28T11:05:52.142Z,74.20
2023-03-28T11:08:32.738Z,70.30
2023-03-28T11:11:13.316Z,77.90
2023-03-28T11:14:44.099Z,77.40
2023-03-28T11:17:38.736Z,68.30
2023-03-28T11:20:38.983Z,79.60
2023-03-28T11:23:28.694Z,74.30
2023-03-28T11:26:09.648Z,73.20
2023-03-28T11:28:52.655Z,70.60
2023-03-28T11:31:45.883Z,71.00
2023-03-28T11:34:28.386Z,73.20
2023-03-28T11:37:19.020Z,71.40
2023-03-28T11:40:06.743Z,68.20
2023-03-28T11:42:43.130Z,71.60
2023-03-28T11:45:50.065Z,73.80
2023-03-28T11:48:54.172Z,74.50
2023-03-28T11:51:32.927Z,69.00
2023-03-28T11:54:18.923Z,77.40
2023-03-28T11:57:01.289Z,75.50
2023-03-28T11:59:43.856Z,74.10
2023-03-28T12:02:35.176Z,78.10
2023-03-28T12:05:24.891Z,77.10
2023-03-28T12:08:36.968Z,76.00
2023-03-28T12:11:12.918Z,76.00
2023-03-28T12:14:08.854Z,76.90
2023-03-28T12:16:45.297Z,75.40
2023-03-28T12:19:22.396Z,76.90
2023-03-28T12:22:14.735Z,77.60
2023-03-28T12:24:48.896Z,75.20
2023-03-28T12:27:49.485Z,80.60
2023-03-28T12:31:10.607Z,76.40
2023-03-28T12:34:13.308Z,73.70
2023-03-28T12:37:12.301Z,76.10
2023-03-28T12:39:47.296Z,77.60
2023-03-28T12:42:21.130Z,79.00
2023-03-28T12:45:01.522Z,77.10
2023-03-28T12:47:55.288Z,78.20
2023-03-28T12:50:30.406Z,80.50
2023-03-28T12:52:58.999Z,83.00
2023-03-28T12:55:26.105Z,82.70
2023-03-28T12:58:12.768Z,81.70
2023-03-28T13:00:55.738Z,80.70
2023-03-28T13:03:59.910Z,79.90
2023-03-28T13:06:44.865Z,73.50
2023-03-28T13:09:54.985Z,76.10
2023-03-28T13:13:08.746Z,72.50
2023-03-28T13:15:56.734Z,73.00
2023-03-28T13:18:33.836Z,73.40
2023-03-28T13:21:04.938Z,80.60
2023-03-28T13:23:48.183Z,84.80
2023-03-28T13:26:15.370Z,85.70
2023-03-28T13:28:50.811Z,85.30
2023-03-28T13:31:24.559Z,80.00
2023-03-28T13:34:01.978Z,79.10
2023-03-28T13:36:35.037Z,80.10
2023-03-28T13:39:29.368Z,83.80
2023-03-28T13:41:59.961Z,81.40
2023-03-28T13:44:36.288Z,85.60
2023-03-28T13:47:04.128Z,83.90
2023-03-28T13:49:33.958Z,85.90
2023-03-28T13:52:12.945Z,83.20
2023-03-28T13:54:40.792Z,80.40
2023-03-28T13:57:18.889Z,84.10
2023-03-28T14:00:06.815Z,75.70
2023-03-28T14:02:53.772Z,74.20
2023-03-28T14:05:30.888Z,76.70
2023-03-28T14:08:23.798Z,77.30
2023-03-28T14:10:52.241Z,74.20
2023-03-28T14:13:26.621Z,90.20
2023-03-28T14:15:55.934Z,87.60
2023-03-28T14:18:46.884Z,89.10
2023-03-28T14:21:14.236Z,73.10
2023-03-28T14:23:56.584Z,75.80
2023-03-28T14:26:29.880Z,77.10
2023-03-28T14:29:19.883Z,78.50
2023-03-28T14:31:48.535Z,70.30
2023-03-28T14:34:24.526Z,78.60
2023-03-28T14:37:16.736Z,73.90
2023-03-28T14:39:45.397Z,66.30
2023-03-28T14:42:22.549Z,75.90
2023-03-28T14:44:54.677Z,64.60
2023-03-28T14:47:33.038Z,67.50
2023-03-28T14:50:01.996Z,61.50
2023-03-28T14:52:36.593Z,68.20
2023-03-28T14:55:05.288Z,64.90
2023-03-28T14:57:33.707Z,64.00
2023-03-28T15:00:02.074Z,63.40
2023-03-28T15:02:36.565Z,64.50
2023-03-28T15:05:09.525Z,64.80
2023-03-28T15:07:37.316Z,64.40
2023-03-28T15:10:19.090Z,66.80
2023-03-28T15:13:09.122Z,61.00
2023-03-28T15:15:42.744Z,58.30
2023-03-28T15:18:20.072Z,67.70
2023-03-28T15:20:52.684Z,62.60
2023-03-28T15:23:38.934Z,64.60
2023-03-28T15:26:26.118Z,63.90
2023-03-28T15:28:55.937Z,64.20
2023-03-28T15:31:24.207Z,67.80
2023-03-28T15:33:53.103Z,68.60
2023-03-28T15:36:34.681Z,69.10
2023-03-28T15:39:25.510Z,65.70
2023-03-28T15:42:00.036Z,67.30
2023-03-28T15:44:37.980Z,62.10
2023-03-28T15:47:22.399Z,67.00
2023-03-28T15:49:50.819Z,63.60
2023-03-28T15:52:22.954Z,69.00
2023-03-28T15:54:54.898Z,65.70
2023-03-28T15:57:27.513Z,66.10
2023-03-28T15:59:56.040Z,68.90
2023-03-28T16:02:22.946Z,70.20
2023-03-28T16:05:14.928Z,70.50
2023-03-28T16:07:45.963Z,62.40
2023-03-28T16:10:24.904Z,70.10
2023-03-28T16:12:52.499Z,66.90
2023-03-28T16:15:22.347Z,73.80
2023-03-28T16:17:49.728Z,75.20
2023-03-28T16:20:23.140Z,76.20
2023-03-28T16:22:50.710Z,73.20
2023-03-28T16:25:17.969Z,76.80
2023-03-28T16:27:44.891Z,76.20
2023-03-28T16:30:31.523Z,77.20
2023-03-28T16:33:01.328Z,72.80
2023-03-28T16:35:28.801Z,80.10
2023-03-28T16:37:59.202Z,80.40
2023-03-28T16:40:27.974Z,79.70
2023-03-28T16:42:56.015Z,79.00
2023-03-28T16:45:23.978Z,79.00
2023-03-28T16:47:51.259Z,77.90
2023-03-28T16:50:18.469Z,77.30
2023-03-28T16:52:45.637Z,76.20
2023-03-28T16:55:16.785Z,75.20
2023-03-28T16:57:44.743Z,72.70
2023-03-28T17:00:17.926Z,73.30
2023-03-28T17:02:48.833Z,68.60
2023-03-28T17:05:16.866Z,66.20
2023-03-28T17:07:43.943Z,62.30
2023-03-28T17:10:11.980Z,67.60
2023-03-28T17:12:41.393Z,65.70
2023-03-28T17:15:09.543Z,63.50
2023-03-28T17:17:36.504Z,64.90
2023-03-28T17:20:19.672Z,65.10
2023-03-28T17:22:47.386Z,57.30
2023-03-28T17:25:19.760Z,65.90
2023-03-28T17:27:50.205Z,63.80
2023-03-28T17:30:17.260Z,66.00
2023-03-28T17:32:44.271Z,66.30
2023-03-28T17:35:12.634Z,66.50
2023-03-28T17:38:00.987Z,66.80
2023-03-28T17:40:29.290Z,58.70
2023-03-28T17:42:57.220Z,67.90
2023-03-28T17:45:26.220Z,68.00
2023-03-28T17:47:56.529Z,68.80
2023-03-28T17:50:23.592Z,69.00
2023-03-28T17:52:51.795Z,69.50
2023-03-28T17:55:18.730Z,69.60
2023-03-28T17:57:45.651Z,69.60
2023-03-28T18:00:13.635Z,69.70
2023-03-28T18:02:45.911Z,69.80
2023-03-28T18:05:13.359Z,70.40
2023-03-28T18:07:40.774Z,70.60
2023-03-28T18:10:08.896Z,70.80
2023-03-28T18:12:37.009Z,70.50
2023-03-28T18:15:05.356Z,70.70
2023-03-28T18:17:32.303Z,70.80
2023-03-28T18:19:59.432Z,71.00
2023-03-28T18:22:26.999Z,71.20
2023-03-28T18:24:54.477Z,71.30
2023-03-28T18:27:21.450Z,71.40
2023-03-28T18:29:49.304Z,71.50
2023-03-28T18:32:16.592Z,71.60
2023-03-28T18:34:43.654Z,71.50
2023-03-28T18:37:11.785Z,71.40
2023-03-28T18:39:41.591Z,71.30
2023-03-28T18:42:08.950Z,71.20
2023-03-28T18:44:37.092Z,71.40
2023-03-28T18:47:05.296Z,71.20
2023-03-28T18:49:32.832Z,71.30
2023-03-28T18:52:04.238Z,71.80
2023-03-28T18:54:34.044Z,71.00
2023-03-28T18:57:01.592Z,70.60
2023-03-28T18:59:30.008Z,71.00
2023-03-28T19:01:58.534Z,71.00
2023-03-28T19:04:26.478Z,71.10
2023-03-28T19:06:53.434Z,71.00
2023-03-28T19:09:21.233Z,71.10
2023-03-28T19:11:51.191Z,71.00
2023-03-28T19:14:18.164Z,70.30
2023-03-28T19:16:45.048Z,71.20
2023-03-28T19:19:11.939Z,71.20
2023-03-28T19:21:38.873Z,71.20
2023-03-28T19:24:06.815Z,71.30
2023-03-28T19:26:33.794Z,71.50
2023-03-28T19:29:00.754Z,71.50
2023-03-28T19:31:27.689Z,71.60
2023-03-28T19:33:54.524Z,71.50
2023-03-28T19:36:21.430Z,71.50
2023-03-28T19:38:48.366Z,71.50
2023-03-28T19:41:19.274Z,71.70
2023-03-28T19:43:48.045Z,71.30
2023-03-28T19:46:33.832Z,71.70
2023-03-28T19:49:06.370Z,68.10
2023-03-28T19:51:33.976Z,71.80
2023-03-28T19:54:01.167Z,71.90
2023-03-28T19:56:28.231Z,72.00
2023-03-28T19:58:55.256Z,72.20
2023-03-28T20:01:22.254Z,72.10
2023-03-28T20:03:52.907Z,72.20
2023-03-28T20:06:22.681Z,72.30
2023-03-28T20:08:50.834Z,72.50
2023-03-28T20:11:22.491Z,72.60
2023-03-28T20:13:49.575Z,72.70
2023-03-28T20:16:17.008Z,73.00
2023-03-28T20:18:44.827Z,72.80
2023-03-28T20:21:13.590Z,72.90
2023-03-28T20:23:41.114Z,72.60
2023-03-28T20:26:18.554Z,73.10
2023-03-28T20:28:50.418Z,71.00
2023-03-28T20:31:19.088Z,73.30
2023-03-28T20:33:46.224Z,73.50
2023-03-28T20:36:13.112Z,73.70
2023-03-28T20:38:40.507Z,73.80
2023-03-28T20:41:16.812Z,73.80
2023-03-28T20:43:47.141Z,72.10
2023-03-28T20:46:18.458Z,74.10
2023-03-28T20:48:52.270Z,73.90
2023-03-28T20:51:23.801Z,74.30
2023-03-28T20:53:58.566Z,74.60
2023-03-28T20:56:29.240Z,74.20
2023-03-28T20:58:58.726Z,74.20
2023-03-28T21:01:29.959Z,74.30
2023-03-28T21:03:59.818Z,74.30
2023-03-28T21:06:38.206Z,74.60
2023-03-28T21:09:09.997Z,71.60
2023-03-28T21:11:39.121Z,74.40
2023-03-28T21:14:07.847Z,74.70
2023-03-28T21:16:37.404Z,74.70
2023-03-28T21:19:04.726Z,74.60
2023-03-28T21:21:33.870Z,74.60
2023-03-28T21:24:02.540Z,74.60
2023-03-28T21:26:29.752Z,74.50
2023-03-28T21:28:56.809Z,74.70
2023-03-28T21:31:27.909Z,74.70
2023-03-28T21:33:57.992Z,74.50
2023-03-28T21:36:26.600Z,74.50
2023-03-28T21:38:54.108Z,74.80
2023-03-28T21:41:22.430Z,74.70
2023-03-28T21:43:50.153Z,74.70
2023-03-28T21:46:18.594Z,74.70
2023-03-28T21:48:47.843Z,74.80
2023-03-28T21:51:16.042Z,75.00
2023-03-28T21:53:43.070Z,75.10
2023-03-28T21:56:12.626Z,75.00
2023-03-28T21:58:40.070Z,75.00
2023-03-28T22:01:09.558Z,75.00
2023-03-28T22:03:37.383Z,75.10
2023-03-28T22:06:05.036Z,75.20
2023-03-28T22:08:32.448Z,75.10
2023-03-28T22:11:02.281Z,75.20
2023-03-28T22:13:30.287Z,75.30
2023-03-28T22:15:59.897Z,75.20
2023-03-28T22:18:28.306Z,75.10
2023-03-28T22:20:55.532Z,75.30
2023-03-28T22:23:24.375Z,75.20
2023-03-28T22:25:52.870Z,75.10
2023-03-28T22:28:24.374Z,75.30
2023-03-28T22:30:56.724Z,75.30
2023-03-28T22:33:25.279Z,74.80
2023-03-28T22:35:52.667Z,75.20
2023-03-28T22:38:19.747Z,75.20
2023-03-28T22:40:47.645Z,75.10
2023-03-28T22:43:16.101Z,75.20
2023-03-28T22:45:43.351Z,75.20
2023-03-28T22:48:17.103Z,75.20
2023-03-28T22:50:44.659Z,75.30
2023-03-28T22:53:12.560Z,75.20
2023-03-28T22:55:40.194Z,75.40
2023-03-28T22:58:08.148Z,75.30
2023-03-28T23:00:36.302Z,75.20
2023-03-28T23:03:04.074Z,74.90
2023-03-28T23:05:31.444Z,75.00
2023-03-28T23:07:59.107Z,75.00
2023-03-28T23:10:26.122Z,74.90
2023-03-28T23:12:53.169Z,74.80
2023-03-28T23:15:20.369Z,75.00
2023-03-28T23:17:47.580Z,75.00
2023-03-28T23:20:15.909Z,75.30
2023-03-28T23:22:46.188Z,75.10
2023-03-28T23:25:16.256Z,75.10
2023-03-28T23:27:43.605Z,74.80
2023-03-28T23:30:13.688Z,75.10
2023-03-28T23:32:43.652Z,75.00
2023-03-28T23:35:11.659Z,75.20
2023-03-28T23:37:39.474Z,75.20
2023-03-28T23:40:11.428Z,75.40
2023-03-28T23:42:38.231Z,75.20
2023-03-28T23:45:05.681Z,75.20
2023-03-28T23:47:32.580Z,75.30
2023-03-28T23:49:59.448Z,75.30
2023-03-28T23:52:26.299Z,75.40
2023-03-28T23:54:53.142Z,75.50
2023-03-28T23:57:20.361Z,75.30
2023-03-28T23:59:47.281Z,75.10
